sensor_id;sensor_type;location;lat;lon;timestamp;temperature;humidity
54960;DHT22;40860;51.710;8.736;2022-07-23T00:01:19;17.30;96.70
54960;DHT22;40860;51.710;8.736;2022-07-23T00:05:28;17.30;96.60
54960;DHT22;40860;51.710;8.736;2022-07-23T00:09:31;17.30;96.70
54960;DHT22;40860;51.710;8.736;2022-07-23T00:13:34;17.30;96.90
54960;DHT22;40860;51.710;8.736;2022-07-23T00:17:38;17.30;97.00
54960;DHT22;40860;51.710;8.736;2022-07-23T00:21:41;17.30;96.80
54960;DHT22;40860;51.710;8.736;2022-07-23T00:25:44;17.30;97.10
54960;DHT22;40860;51.710;8.736;2022-07-23T00:29:47;17.20;97.20
54960;DHT22;40860;51.710;8.736;2022-07-23T00:33:51;17.20;97.20
54960;DHT22;40860;51.710;8.736;2022-07-23T00:37:58;17.20;97.00
54960;DHT22;40860;51.710;8.736;2022-07-23T00:42:02;17.20;97.30
54960;DHT22;40860;51.710;8.736;2022-07-23T00:46:06;17.20;97.40
54960;DHT22;40860;51.710;8.736;2022-07-23T00:50:11;17.20;97.50
54960;DHT22;40860;51.710;8.736;2022-07-23T00:54:14;17.20;97.50
54960;DHT22;40860;51.710;8.736;2022-07-23T00:58:16;17.20;97.50
54960;DHT22;40860;51.710;8.736;2022-07-23T01:02:20;17.20;97.60
54960;DHT22;40860;51.710;8.736;2022-07-23T01:06:24;17.20;97.80
54960;DHT22;40860;51.710;8.736;2022-07-23T01:10:27;17.20;98.00
54960;DHT22;40860;51.710;8.736;2022-07-23T01:14:36;17.20;98.20
54960;DHT22;40860;51.710;8.736;2022-07-23T01:18:39;17.10;98.10
54960;DHT22;40860;51.710;8.736;2022-07-23T01:22:44;17.10;98.20
54960;DHT22;40860;51.710;8.736;2022-07-23T01:26:48;17.10;98.40
54960;DHT22;40860;51.710;8.736;2022-07-23T01:30:51;17.10;98.40
54960;DHT22;40860;51.710;8.736;2022-07-23T01:34:54;17.10;98.50
54960;DHT22;40860;51.710;8.736;2022-07-23T01:39:06;17.10;98.60
54960;DHT22;40860;51.710;8.736;2022-07-23T01:43:09;17.00;99.10
54960;DHT22;40860;51.710;8.736;2022-07-23T01:47:13;17.00;99.70
54960;DHT22;40860;51.710;8.736;2022-07-23T01:51:17;16.90;99.90
54960;DHT22;40860;51.710;8.736;2022-07-23T01:55:30;16.90;99.90
54960;DHT22;40860;51.710;8.736;2022-07-23T01:59:33;16.90;99.90
54960;DHT22;40860;51.710;8.736;2022-07-23T02:03:37;16.90;99.90
54960;DHT22;40860;51.710;8.736;2022-07-23T02:07:40;16.80;99.90
54960;DHT22;40860;51.710;8.736;2022-07-23T02:11:45;16.80;99.90
54960;DHT22;40860;51.710;8.736;2022-07-23T02:15:48;16.80;99.90
54960;DHT22;40860;51.710;8.736;2022-07-23T02:19:51;16.80;99.90
54960;DHT22;40860;51.710;8.736;2022-07-23T02:23:56;16.70;99.90
54960;DHT22;40860;51.710;8.736;2022-07-23T02:28:02;16.60;99.90
54960;DHT22;40860;51.710;8.736;2022-07-23T02:32:05;16.70;99.90
54960;DHT22;40860;51.710;8.736;2022-07-23T02:36:08;16.70;99.90
54960;DHT22;40860;51.710;8.736;2022-07-23T02:40:14;16.60;99.90
54960;DHT22;40860;51.710;8.736;2022-07-23T02:44:19;16.50;99.90
54960;DHT22;40860;51.710;8.736;2022-07-23T02:48:26;16.50;99.90
54960;DHT22;40860;51.710;8.736;2022-07-23T02:52:29;16.50;99.90
54960;DHT22;40860;51.710;8.736;2022-07-23T02:56:32;16.50;99.90
54960;DHT22;40860;51.710;8.736;2022-07-23T03:00:36;16.50;99.90
54960;DHT22;40860;51.710;8.736;2022-07-23T03:04:38;16.50;99.90
54960;DHT22;40860;51.710;8.736;2022-07-23T03:08:45;16.50;99.90
54960;DHT22;40860;51.710;8.736;2022-07-23T03:12:48;16.50;99.90
54960;DHT22;40860;51.710;8.736;2022-07-23T03:16:53;16.50;99.90
54960;DHT22;40860;51.710;8.736;2022-07-23T03:20:56;16.50;99.90
54960;DHT22;40860;51.710;8.736;2022-07-23T03:24:59;16.50;99.90
54960;DHT22;40860;51.710;8.736;2022-07-23T03:29:07;16.50;99.90
54960;DHT22;40860;51.710;8.736;2022-07-23T03:33:11;16.40;99.90
54960;DHT22;40860;51.710;8.736;2022-07-23T03:37:16;16.40;99.90
54960;DHT22;40860;51.710;8.736;2022-07-23T03:41:20;16.40;99.90
54960;DHT22;40860;51.710;8.736;2022-07-23T03:45:23;16.30;99.90
54960;DHT22;40860;51.710;8.736;2022-07-23T03:49:27;16.30;99.90
54960;DHT22;40860;51.710;8.736;2022-07-23T03:53:30;16.20;99.90
54960;DHT22;40860;51.710;8.736;2022-07-23T03:57:33;16.20;99.90
54960;DHT22;40860;51.710;8.736;2022-07-23T04:01:36;16.10;99.90
54960;DHT22;40860;51.710;8.736;2022-07-23T04:05:41;16.00;99.90
54960;DHT22;40860;51.710;8.736;2022-07-23T04:09:47;16.00;99.90
54960;DHT22;40860;51.710;8.736;2022-07-23T04:13:50;15.90;99.90
54960;DHT22;40860;51.710;8.736;2022-07-23T04:17:56;15.90;99.90
54960;DHT22;40860;51.710;8.736;2022-07-23T04:22:07;15.90;99.90
54960;DHT22;40860;51.710;8.736;2022-07-23T04:26:11;15.90;99.90
54960;DHT22;40860;51.710;8.736;2022-07-23T04:30:20;15.90;99.90
54960;DHT22;40860;51.710;8.736;2022-07-23T04:34:23;15.90;99.90
54960;DHT22;40860;51.710;8.736;2022-07-23T04:38:30;15.90;99.90
54960;DHT22;40860;51.710;8.736;2022-07-23T04:42:36;15.90;99.90
54960;DHT22;40860;51.710;8.736;2022-07-23T04:46:39;16.00;99.90
54960;DHT22;40860;51.710;8.736;2022-07-23T04:50:43;16.00;99.90
54960;DHT22;40860;51.710;8.736;2022-07-23T04:54:53;16.00;99.90
54960;DHT22;40860;51.710;8.736;2022-07-23T04:58:55;16.10;99.90
54960;DHT22;40860;51.710;8.736;2022-07-23T05:02:59;16.10;99.90
54960;DHT22;40860;51.710;8.736;2022-07-23T05:07:02;16.10;99.90
54960;DHT22;40860;51.710;8.736;2022-07-23T05:11:07;16.20;99.90
54960;DHT22;40860;51.710;8.736;2022-07-23T05:15:10;16.20;99.90
54960;DHT22;40860;51.710;8.736;2022-07-23T05:19:13;16.30;99.90
54960;DHT22;40860;51.710;8.736;2022-07-23T05:23:16;16.40;99.90
54960;DHT22;40860;51.710;8.736;2022-07-23T05:27:21;16.50;99.90
54960;DHT22;40860;51.710;8.736;2022-07-23T05:31:24;16.60;99.90
54960;DHT22;40860;51.710;8.736;2022-07-23T05:35:27;16.70;99.90
54960;DHT22;40860;51.710;8.736;2022-07-23T05:39:49;17.00;99.90
54960;DHT22;40860;51.710;8.736;2022-07-23T05:43:54;17.10;99.90
54960;DHT22;40860;51.710;8.736;2022-07-23T05:47:58;17.30;99.90
54960;DHT22;40860;51.710;8.736;2022-07-23T05:52:08;17.60;99.90
54960;DHT22;40860;51.710;8.736;2022-07-23T05:56:31;17.40;99.90
54960;DHT22;40860;51.710;8.736;2022-07-23T06:00:35;17.40;99.90
54960;DHT22;40860;51.710;8.736;2022-07-23T06:04:38;17.30;99.90
54960;DHT22;40860;51.710;8.736;2022-07-23T06:09:04;17.40;99.90
54960;DHT22;40860;51.710;8.736;2022-07-23T06:13:07;17.70;99.90
54960;DHT22;40860;51.710;8.736;2022-07-23T06:17:12;17.70;99.80
54960;DHT22;40860;51.710;8.736;2022-07-23T06:21:14;17.80;99.70
54960;DHT22;40860;51.710;8.736;2022-07-23T06:25:37;17.70;99.40
54960;DHT22;40860;51.710;8.736;2022-07-23T06:29:40;17.60;99.50
54960;DHT22;40860;51.710;8.736;2022-07-23T06:33:44;17.50;99.90
54960;DHT22;40860;51.710;8.736;2022-07-23T06:37:48;17.50;99.60
54960;DHT22;40860;51.710;8.736;2022-07-23T06:41:51;17.90;99.80
54960;DHT22;40860;51.710;8.736;2022-07-23T06:46:11;17.90;98.50
54960;DHT22;40860;51.710;8.736;2022-07-23T06:50:16;17.80;98.20
54960;DHT22;40860;51.710;8.736;2022-07-23T06:54:18;18.30;98.80
54960;DHT22;40860;51.710;8.736;2022-07-23T06:58:21;20.60;95.60
54960;DHT22;40860;51.710;8.736;2022-07-23T07:02:24;20.30;94.00
54960;DHT22;40860;51.710;8.736;2022-07-23T07:06:30;19.60;94.70
54960;DHT22;40860;51.710;8.736;2022-07-23T07:10:33;19.20;94.70
54960;DHT22;40860;51.710;8.736;2022-07-23T07:14:36;18.90;94.80
54960;DHT22;40860;51.710;8.736;2022-07-23T07:18:39;18.70;95.70
54960;DHT22;40860;51.710;8.736;2022-07-23T07:22:43;18.60;96.00
54960;DHT22;40860;51.710;8.736;2022-07-23T07:26:46;18.80;95.80
54960;DHT22;40860;51.710;8.736;2022-07-23T07:30:48;19.00;95.60
54960;DHT22;40860;51.710;8.736;2022-07-23T07:34:51;19.80;95.00
54960;DHT22;40860;51.710;8.736;2022-07-23T07:38:55;19.70;93.40
54960;DHT22;40860;51.710;8.736;2022-07-23T07:42:59;19.90;94.00
54960;DHT22;40860;51.710;8.736;2022-07-23T07:47:03;22.20;92.00
54960;DHT22;40860;51.710;8.736;2022-07-23T07:51:06;23.00;84.20
54960;DHT22;40860;51.710;8.736;2022-07-23T07:55:11;21.70;85.30
54960;DHT22;40860;51.710;8.736;2022-07-23T07:59:14;21.40;87.70
54960;DHT22;40860;51.710;8.736;2022-07-23T08:03:17;22.60;85.20
54960;DHT22;40860;51.710;8.736;2022-07-23T08:11:25;24.60;77.30
54960;DHT22;40860;51.710;8.736;2022-07-23T08:15:29;23.30;76.10
54960;DHT22;40860;51.710;8.736;2022-07-23T08:19:32;22.20;79.30
54960;DHT22;40860;51.710;8.736;2022-07-23T08:23:35;21.50;82.40
54960;DHT22;40860;51.710;8.736;2022-07-23T08:27:39;21.00;84.10
54960;DHT22;40860;51.710;8.736;2022-07-23T08:31:41;20.60;85.40
54960;DHT22;40860;51.710;8.736;2022-07-23T08:35:47;20.80;86.40
54960;DHT22;40860;51.710;8.736;2022-07-23T08:39:51;21.00;85.10
54960;DHT22;40860;51.710;8.736;2022-07-23T08:43:55;21.00;83.70
54960;DHT22;40860;51.710;8.736;2022-07-23T08:47:59;20.60;82.80
54960;DHT22;40860;51.710;8.736;2022-07-23T08:52:06;21.00;84.70
54960;DHT22;40860;51.710;8.736;2022-07-23T08:56:09;21.80;81.90
54960;DHT22;40860;51.710;8.736;2022-07-23T09:00:15;22.20;79.40
54960;DHT22;40860;51.710;8.736;2022-07-23T09:04:18;22.10;77.00
54960;DHT22;40860;51.710;8.736;2022-07-23T09:08:35;22.20;77.40
54960;DHT22;40860;51.710;8.736;2022-07-23T09:12:38;22.70;74.60
54960;DHT22;40860;51.710;8.736;2022-07-23T09:16:42;22.80;75.40
54960;DHT22;40860;51.710;8.736;2022-07-23T09:20:45;22.60;73.40
54960;DHT22;40860;51.710;8.736;2022-07-23T09:25:06;22.10;73.50
54960;DHT22;40860;51.710;8.736;2022-07-23T09:29:12;22.00;75.20
54960;DHT22;40860;51.710;8.736;2022-07-23T09:33:16;22.50;75.00
54960;DHT22;40860;51.710;8.736;2022-07-23T09:37:22;23.10;72.20
54960;DHT22;40860;51.710;8.736;2022-07-23T09:41:34;22.80;70.20
54960;DHT22;40860;51.710;8.736;2022-07-23T09:45:37;22.90;72.00
54960;DHT22;40860;51.710;8.736;2022-07-23T09:49:57;22.60;72.80
54960;DHT22;40860;51.710;8.736;2022-07-23T09:54:01;23.10;72.70
54960;DHT22;40860;51.710;8.736;2022-07-23T09:58:05;22.90;70.00
54960;DHT22;40860;51.710;8.736;2022-07-23T10:02:11;22.70;71.80
54960;DHT22;40860;51.710;8.736;2022-07-23T10:06:36;22.90;70.70
54960;DHT22;40860;51.710;8.736;2022-07-23T10:11:00;22.90;70.80
54960;DHT22;40860;51.710;8.736;2022-07-23T10:15:07;23.00;69.50
54960;DHT22;40860;51.710;8.736;2022-07-23T10:19:10;23.20;68.90
54960;DHT22;40860;51.710;8.736;2022-07-23T10:23:19;23.50;68.50
54960;DHT22;40860;51.710;8.736;2022-07-23T10:27:39;23.20;67.40
54960;DHT22;40860;51.710;8.736;2022-07-23T10:31:54;23.00;68.30
54960;DHT22;40860;51.710;8.736;2022-07-23T10:36:09;23.60;68.40
54960;DHT22;40860;51.710;8.736;2022-07-23T10:40:17;23.50;66.60
54960;DHT22;40860;51.710;8.736;2022-07-23T10:44:22;23.30;66.90
54960;DHT22;40860;51.710;8.736;2022-07-23T10:48:27;23.60;66.00
54960;DHT22;40860;51.710;8.736;2022-07-23T10:52:32;23.80;66.10
54960;DHT22;40860;51.710;8.736;2022-07-23T10:57:07;23.80;65.10
54960;DHT22;40860;51.710;8.736;2022-07-23T11:01:31;24.00;63.70
54960;DHT22;40860;51.710;8.736;2022-07-23T11:05:41;24.20;62.60
54960;DHT22;40860;51.710;8.736;2022-07-23T11:09:45;24.50;63.70
54960;DHT22;40860;51.710;8.736;2022-07-23T11:13:50;24.20;62.20
54960;DHT22;40860;51.710;8.736;2022-07-23T11:17:59;23.90;65.40
54960;DHT22;40860;51.710;8.736;2022-07-23T11:22:04;23.90;63.20
54960;DHT22;40860;51.710;8.736;2022-07-23T11:26:07;24.20;64.30
54960;DHT22;40860;51.710;8.736;2022-07-23T11:30:38;23.90;63.00
54960;DHT22;40860;51.710;8.736;2022-07-23T11:34:42;24.10;64.10
54960;DHT22;40860;51.710;8.736;2022-07-23T11:38:50;24.30;63.60
54960;DHT22;40860;51.710;8.736;2022-07-23T11:42:59;24.50;62.60
54960;DHT22;40860;51.710;8.736;2022-07-23T11:47:04;24.70;60.80
54960;DHT22;40860;51.710;8.736;2022-07-23T11:51:08;24.80;59.30
54960;DHT22;40860;51.710;8.736;2022-07-23T11:55:11;24.80;58.80
54960;DHT22;40860;51.710;8.736;2022-07-23T11:59:19;24.80;58.60
54960;DHT22;40860;51.710;8.736;2022-07-23T12:03:25;24.80;58.80
54960;DHT22;40860;51.710;8.736;2022-07-23T12:07:31;25.10;57.20
54960;DHT22;40860;51.710;8.736;2022-07-23T12:11:34;24.90;59.00
54960;DHT22;40860;51.710;8.736;2022-07-23T12:15:39;24.70;59.10
54960;DHT22;40860;51.710;8.736;2022-07-23T12:19:45;24.90;58.20
54960;DHT22;40860;51.710;8.736;2022-07-23T12:23:50;24.80;58.40
54960;DHT22;40860;51.710;8.736;2022-07-23T12:28:02;25.10;58.60
54960;DHT22;40860;51.710;8.736;2022-07-23T12:32:17;25.20;58.40
54960;DHT22;40860;51.710;8.736;2022-07-23T12:36:36;25.30;56.60
54960;DHT22;40860;51.710;8.736;2022-07-23T12:40:46;25.10;56.70
54960;DHT22;40860;51.710;8.736;2022-07-23T12:45:07;25.10;57.00
54960;DHT22;40860;51.710;8.736;2022-07-23T12:49:10;25.30;58.30
54960;DHT22;40860;51.710;8.736;2022-07-23T12:53:16;25.30;56.30
54960;DHT22;40860;51.710;8.736;2022-07-23T12:57:46;25.30;56.10
54960;DHT22;40860;51.710;8.736;2022-07-23T13:01:54;25.50;56.30
54960;DHT22;40860;51.710;8.736;2022-07-23T13:06:00;25.50;55.30
54960;DHT22;40860;51.710;8.736;2022-07-23T13:10:05;25.40;55.30
54960;DHT22;40860;51.710;8.736;2022-07-23T13:14:08;25.40;55.50
54960;DHT22;40860;51.710;8.736;2022-07-23T13:18:13;25.40;55.90
54960;DHT22;40860;51.710;8.736;2022-07-23T13:22:16;25.50;56.20
54960;DHT22;40860;51.710;8.736;2022-07-23T13:26:32;25.60;55.00
54960;DHT22;40860;51.710;8.736;2022-07-23T13:30:35;25.60;55.20
54960;DHT22;40860;51.710;8.736;2022-07-23T13:34:38;25.50;54.70
54960;DHT22;40860;51.710;8.736;2022-07-23T13:38:42;25.60;55.10
54960;DHT22;40860;51.710;8.736;2022-07-23T13:42:47;25.70;55.70
54960;DHT22;40860;51.710;8.736;2022-07-23T13:46:50;26.00;55.40
54960;DHT22;40860;51.710;8.736;2022-07-23T13:50:53;26.10;54.60
54960;DHT22;40860;51.710;8.736;2022-07-23T13:54:56;25.70;54.20
54960;DHT22;40860;51.710;8.736;2022-07-23T13:59:01;26.00;54.00
54960;DHT22;40860;51.710;8.736;2022-07-23T14:03:04;26.30;53.40
54960;DHT22;40860;51.710;8.736;2022-07-23T14:07:07;26.10;54.40
54960;DHT22;40860;51.710;8.736;2022-07-23T14:11:11;26.50;53.10
54960;DHT22;40860;51.710;8.736;2022-07-23T14:15:15;27.20;52.60
54960;DHT22;40860;51.710;8.736;2022-07-23T14:19:19;27.30;51.40
54960;DHT22;40860;51.710;8.736;2022-07-23T14:23:22;27.20;51.40
54960;DHT22;40860;51.710;8.736;2022-07-23T14:27:26;27.10;50.60
54960;DHT22;40860;51.710;8.736;2022-07-23T14:31:30;26.90;50.80
54960;DHT22;40860;51.710;8.736;2022-07-23T14:35:33;27.10;51.10
54960;DHT22;40860;51.710;8.736;2022-07-23T14:39:36;27.40;51.20
54960;DHT22;40860;51.710;8.736;2022-07-23T14:43:39;28.10;49.90
54960;DHT22;40860;51.710;8.736;2022-07-23T14:47:43;27.80;48.90
54960;DHT22;40860;51.710;8.736;2022-07-23T14:51:48;27.90;48.60
54960;DHT22;40860;51.710;8.736;2022-07-23T14:55:51;28.50;48.20
54960;DHT22;40860;51.710;8.736;2022-07-23T14:59:56;28.20;47.70
54960;DHT22;40860;51.710;8.736;2022-07-23T15:04:00;28.60;48.10
54960;DHT22;40860;51.710;8.736;2022-07-23T15:08:23;28.90;46.70
54960;DHT22;40860;51.710;8.736;2022-07-23T15:12:27;28.50;46.40
54960;DHT22;40860;51.710;8.736;2022-07-23T15:16:30;28.70;46.90
54960;DHT22;40860;51.710;8.736;2022-07-23T15:20:34;28.70;45.80
54960;DHT22;40860;51.710;8.736;2022-07-23T15:24:41;28.40;46.30
54960;DHT22;40860;51.710;8.736;2022-07-23T15:28:44;28.60;46.00
54960;DHT22;40860;51.710;8.736;2022-07-23T15:32:47;29.10;45.30
54960;DHT22;40860;51.710;8.736;2022-07-23T15:36:52;29.20;45.00
54960;DHT22;40860;51.710;8.736;2022-07-23T15:40:55;29.10;44.70
54960;DHT22;40860;51.710;8.736;2022-07-23T15:44:59;29.30;44.50
54960;DHT22;40860;51.710;8.736;2022-07-23T15:49:02;28.90;45.60
54960;DHT22;40860;51.710;8.736;2022-07-23T15:53:08;29.30;45.70
54960;DHT22;40860;51.710;8.736;2022-07-23T15:57:12;29.30;44.30
54960;DHT22;40860;51.710;8.736;2022-07-23T16:01:15;29.20;45.50
54960;DHT22;40860;51.710;8.736;2022-07-23T16:05:18;29.10;45.40
54960;DHT22;40860;51.710;8.736;2022-07-23T16:09:22;29.40;44.70
54960;DHT22;40860;51.710;8.736;2022-07-23T16:13:25;29.40;43.70
54960;DHT22;40860;51.710;8.736;2022-07-23T16:17:29;28.90;45.30
54960;DHT22;40860;51.710;8.736;2022-07-23T16:21:31;29.20;43.70
54960;DHT22;40860;51.710;8.736;2022-07-23T16:25:36;28.90;44.30
54960;DHT22;40860;51.710;8.736;2022-07-23T16:29:39;28.90;44.70
54960;DHT22;40860;51.710;8.736;2022-07-23T16:33:42;28.80;45.30
54960;DHT22;40860;51.710;8.736;2022-07-23T16:37:45;28.60;44.80
54960;DHT22;40860;51.710;8.736;2022-07-23T16:41:49;28.30;45.30
54960;DHT22;40860;51.710;8.736;2022-07-23T16:45:52;28.40;45.40
54960;DHT22;40860;51.710;8.736;2022-07-23T16:49:55;28.40;46.30
54960;DHT22;40860;51.710;8.736;2022-07-23T16:53:58;28.40;45.40
54960;DHT22;40860;51.710;8.736;2022-07-23T16:58:02;28.20;45.10
54960;DHT22;40860;51.710;8.736;2022-07-23T17:02:06;27.70;46.20
54960;DHT22;40860;51.710;8.736;2022-07-23T17:06:09;27.30;48.00
54960;DHT22;40860;51.710;8.736;2022-07-23T17:10:12;26.70;47.50
54960;DHT22;40860;51.710;8.736;2022-07-23T17:14:17;26.00;48.40
54960;DHT22;40860;51.710;8.736;2022-07-23T17:18:20;26.00;49.20
54960;DHT22;40860;51.710;8.736;2022-07-23T17:22:23;26.00;48.70
54960;DHT22;40860;51.710;8.736;2022-07-23T17:26:26;25.80;48.60
54960;DHT22;40860;51.710;8.736;2022-07-23T17:30:30;25.60;49.20
54960;DHT22;40860;51.710;8.736;2022-07-23T17:34:33;25.30;49.90
54960;DHT22;40860;51.710;8.736;2022-07-23T17:38:36;25.20;50.00
54960;DHT22;40860;51.710;8.736;2022-07-23T17:42:39;25.00;50.70
54960;DHT22;40860;51.710;8.736;2022-07-23T17:46:44;24.80;50.70
54960;DHT22;40860;51.710;8.736;2022-07-23T17:50:47;24.50;51.00
54960;DHT22;40860;51.710;8.736;2022-07-23T17:54:55;24.20;51.80
54960;DHT22;40860;51.710;8.736;2022-07-23T17:58:58;24.20;52.30
54960;DHT22;40860;51.710;8.736;2022-07-23T18:03:03;24.10;52.40
54960;DHT22;40860;51.710;8.736;2022-07-23T18:07:08;24.00;52.50
54960;DHT22;40860;51.710;8.736;2022-07-23T18:11:11;23.90;53.40
54960;DHT22;40860;51.710;8.736;2022-07-23T18:15:14;23.90;53.50
54960;DHT22;40860;51.710;8.736;2022-07-23T18:19:18;23.70;54.10
54960;DHT22;40860;51.710;8.736;2022-07-23T18:23:21;23.50;54.00
54960;DHT22;40860;51.710;8.736;2022-07-23T18:27:24;23.30;55.30
54960;DHT22;40860;51.710;8.736;2022-07-23T18:31:27;23.20;55.20
54960;DHT22;40860;51.710;8.736;2022-07-23T18:35:31;23.10;55.50
54960;DHT22;40860;51.710;8.736;2022-07-23T18:39:34;23.00;55.90
54960;DHT22;40860;51.710;8.736;2022-07-23T18:43:37;22.80;56.40
54960;DHT22;40860;51.710;8.736;2022-07-23T18:47:40;22.70;56.80
54960;DHT22;40860;51.710;8.736;2022-07-23T18:51:44;22.60;57.10
54960;DHT22;40860;51.710;8.736;2022-07-23T18:55:48;22.60;57.40
54960;DHT22;40860;51.710;8.736;2022-07-23T18:59:51;22.50;57.60
54960;DHT22;40860;51.710;8.736;2022-07-23T19:03:53;22.40;57.80
54960;DHT22;40860;51.710;8.736;2022-07-23T19:07:58;22.40;58.30
54960;DHT22;40860;51.710;8.736;2022-07-23T19:12:00;22.30;58.70
54960;DHT22;40860;51.710;8.736;2022-07-23T19:16:04;22.20;60.30
54960;DHT22;40860;51.710;8.736;2022-07-23T19:20:09;22.00;60.40
54960;DHT22;40860;51.710;8.736;2022-07-23T19:24:13;21.90;61.50
54960;DHT22;40860;51.710;8.736;2022-07-23T19:28:17;21.80;62.30
54960;DHT22;40860;51.710;8.736;2022-07-23T19:32:20;21.60;63.50
54960;DHT22;40860;51.710;8.736;2022-07-23T19:36:23;21.40;64.30
54960;DHT22;40860;51.710;8.736;2022-07-23T19:40:27;21.30;64.40
54960;DHT22;40860;51.710;8.736;2022-07-23T19:44:30;21.20;64.40
54960;DHT22;40860;51.710;8.736;2022-07-23T19:48:33;21.20;65.70
54960;DHT22;40860;51.710;8.736;2022-07-23T19:52:36;21.10;65.80
54960;DHT22;40860;51.710;8.736;2022-07-23T19:56:42;21.00;67.10
54960;DHT22;40860;51.710;8.736;2022-07-23T20:00:45;20.80;68.90
54960;DHT22;40860;51.710;8.736;2022-07-23T20:04:48;20.70;69.20
54960;DHT22;40860;51.710;8.736;2022-07-23T20:08:51;20.60;69.40
54960;DHT22;40860;51.710;8.736;2022-07-23T20:12:55;20.60;69.40
54960;DHT22;40860;51.710;8.736;2022-07-23T20:16:58;20.50;69.70
54960;DHT22;40860;51.710;8.736;2022-07-23T20:21:01;20.50;70.60
54960;DHT22;40860;51.710;8.736;2022-07-23T20:25:05;20.40;70.20
54960;DHT22;40860;51.710;8.736;2022-07-23T20:29:10;20.40;69.80
54960;DHT22;40860;51.710;8.736;2022-07-23T20:33:12;20.40;69.70
54960;DHT22;40860;51.710;8.736;2022-07-23T20:37:15;20.40;70.40
54960;DHT22;40860;51.710;8.736;2022-07-23T20:41:18;20.40;69.70
54960;DHT22;40860;51.710;8.736;2022-07-23T20:45:22;20.40;70.70
54960;DHT22;40860;51.710;8.736;2022-07-23T20:49:25;20.30;70.70
54960;DHT22;40860;51.710;8.736;2022-07-23T20:53:29;20.20;72.10
54960;DHT22;40860;51.710;8.736;2022-07-23T20:57:32;20.10;72.20
54960;DHT22;40860;51.710;8.736;2022-07-23T21:01:36;20.00;72.90
54960;DHT22;40860;51.710;8.736;2022-07-23T21:05:39;19.80;74.70
54960;DHT22;40860;51.710;8.736;2022-07-23T21:09:42;19.70;75.30
54960;DHT22;40860;51.710;8.736;2022-07-23T21:13:45;19.50;76.80
54960;DHT22;40860;51.710;8.736;2022-07-23T21:17:50;19.40;78.20
54960;DHT22;40860;51.710;8.736;2022-07-23T21:21:53;19.30;78.50
54960;DHT22;40860;51.710;8.736;2022-07-23T21:25:56;19.20;79.30
54960;DHT22;40860;51.710;8.736;2022-07-23T21:30:19;19.10;79.70
54960;DHT22;40860;51.710;8.736;2022-07-23T21:34:30;19.00;80.70
54960;DHT22;40860;51.710;8.736;2022-07-23T21:38:33;18.90;81.30
54960;DHT22;40860;51.710;8.736;2022-07-23T21:42:36;18.80;81.70
54960;DHT22;40860;51.710;8.736;2022-07-23T21:46:39;18.70;82.30
54960;DHT22;40860;51.710;8.736;2022-07-23T21:50:43;18.70;82.00
54960;DHT22;40860;51.710;8.736;2022-07-23T21:54:46;18.50;83.00
54960;DHT22;40860;51.710;8.736;2022-07-23T21:58:49;18.40;82.80
54960;DHT22;40860;51.710;8.736;2022-07-23T22:02:53;18.30;83.10
54960;DHT22;40860;51.710;8.736;2022-07-23T22:06:57;18.30;83.70
54960;DHT22;40860;51.710;8.736;2022-07-23T22:11:00;18.30;83.50
54960;DHT22;40860;51.710;8.736;2022-07-23T22:15:04;18.20;84.70
54960;DHT22;40860;51.710;8.736;2022-07-23T22:19:07;18.10;85.10
54960;DHT22;40860;51.710;8.736;2022-07-23T22:23:11;18.10;83.70
54960;DHT22;40860;51.710;8.736;2022-07-23T22:27:14;18.10;83.60
54960;DHT22;40860;51.710;8.736;2022-07-23T22:31:16;18.10;85.80
54960;DHT22;40860;51.710;8.736;2022-07-23T22:35:19;17.90;86.20
54960;DHT22;40860;51.710;8.736;2022-07-23T22:39:24;17.80;86.50
54960;DHT22;40860;51.710;8.736;2022-07-23T22:43:26;17.80;86.40
54960;DHT22;40860;51.710;8.736;2022-07-23T22:47:29;17.70;87.60
54960;DHT22;40860;51.710;8.736;2022-07-23T22:51:34;17.60;88.20
54960;DHT22;40860;51.710;8.736;2022-07-23T22:55:39;17.50;88.40
54960;DHT22;40860;51.710;8.736;2022-07-23T22:59:42;17.40;89.30
54960;DHT22;40860;51.710;8.736;2022-07-23T23:03:45;17.40;89.40
54960;DHT22;40860;51.710;8.736;2022-07-23T23:07:48;17.30;90.30
54960;DHT22;40860;51.710;8.736;2022-07-23T23:11:52;17.20;90.40
54960;DHT22;40860;51.710;8.736;2022-07-23T23:15:55;17.20;90.40
54960;DHT22;40860;51.710;8.736;2022-07-23T23:19:58;17.20;90.90
54960;DHT22;40860;51.710;8.736;2022-07-23T23:24:01;17.10;91.10
54960;DHT22;40860;51.710;8.736;2022-07-23T23:28:05;17.00;91.40
54960;DHT22;40860;51.710;8.736;2022-07-23T23:32:08;17.00;91.60
54960;DHT22;40860;51.710;8.736;2022-07-23T23:36:11;16.90;91.70
54960;DHT22;40860;51.710;8.736;2022-07-23T23:40:14;16.80;92.00
54960;DHT22;40860;51.710;8.736;2022-07-23T23:44:18;16.80;92.20
54960;DHT22;40860;51.710;8.736;2022-07-23T23:48:23;16.90;91.80
54960;DHT22;40860;51.710;8.736;2022-07-23T23:52:26;16.90;91.90
54960;DHT22;40860;51.710;8.736;2022-07-23T23:56:29;16.90;91.50
